sensor_id;sensor_type;location;lat;lon;timestamp;P1;durP1;ratioP1;P2;durP2;ratioP2
3099;SDS011;1560;52.746;13.474;2023-04-06T00:03:59;7.90;;;5.40;;
3099;SDS011;1560;52.746;13.474;2023-04-06T00:06:28;7.37;;;5.12;;
3099;SDS011;1560;52.746;13.474;2023-04-06T00:08:58;8.38;;;6.60;;
3099;SDS011;1560;52.746;13.474;2023-04-06T00:11:35;9.93;;;5.80;;
3099;SDS011;1560;52.746;13.474;2023-04-06T00:14:04;7.97;;;6.08;;
3099;SDS011;1560;52.746;13.474;2023-04-06T00:16:34;7.95;;;6.08;;
3099;SDS011;1560;52.746;13.474;2023-04-06T00:19:03;7.92;;;5.85;;
3099;SDS011;1560;52.746;13.474;2023-04-06T00:21:31;10.00;;;6.95;;
3099;SDS011;1560;52.746;13.474;2023-04-06T00:26:36;8.98;;;5.87;;
3099;SDS011;1560;52.746;13.474;2023-04-06T00:29:05;7.67;;;6.55;;
3099;SDS011;1560;52.746;13.474;2023-04-06T00:31:34;8.43;;;6.37;;
3099;SDS011;1560;52.746;13.474;2023-04-06T00:34:03;9.93;;;7.25;;
3099;SDS011;1560;52.746;13.474;2023-04-06T00:36:33;9.88;;;6.95;;
3099;SDS011;1560;52.746;13.474;2023-04-06T00:39:01;9.25;;;7.05;;
3099;SDS011;1560;52.746;13.474;2023-04-06T00:41:39;11.53;;;8.18;;
3099;SDS011;1560;52.746;13.474;2023-04-06T00:44:12;7.87;;;7.10;;
3099;SDS011;1560;52.746;13.474;2023-04-06T00:49:17;10.40;;;7.80;;
3099;SDS011;1560;52.746;13.474;2023-04-06T00:54:23;11.48;;;7.67;;
3099;SDS011;1560;52.746;13.474;2023-04-06T00:56:51;10.95;;;6.80;;
3099;SDS011;1560;52.746;13.474;2023-04-06T00:59:21;8.50;;;6.80;;
3099;SDS011;1560;52.746;13.474;2023-04-06T01:01:50;7.95;;;6.75;;
3099;SDS011;1560;52.746;13.474;2023-04-06T01:04:19;14.05;;;7.40;;
3099;SDS011;1560;52.746;13.474;2023-04-06T01:06:49;9.15;;;8.05;;
3099;SDS011;1560;52.746;13.474;2023-04-06T01:09:18;9.40;;;6.60;;
3099;SDS011;1560;52.746;13.474;2023-04-06T01:14:23;7.30;;;5.20;;
3099;SDS011;1560;52.746;13.474;2023-04-06T01:16:53;6.60;;;5.05;;
3099;SDS011;1560;52.746;13.474;2023-04-06T01:19:23;7.47;;;5.03;;
3099;SDS011;1560;52.746;13.474;2023-04-06T01:24:29;6.97;;;4.45;;
3099;SDS011;1560;52.746;13.474;2023-04-06T01:26:58;6.78;;;4.95;;
3099;SDS011;1560;52.746;13.474;2023-04-06T01:29:27;5.85;;;4.65;;
3099;SDS011;1560;52.746;13.474;2023-04-06T01:31:56;7.42;;;4.90;;
3099;SDS011;1560;52.746;13.474;2023-04-06T01:34:24;6.53;;;5.10;;
3099;SDS011;1560;52.746;13.474;2023-04-06T01:37:02;7.92;;;5.08;;
3099;SDS011;1560;52.746;13.474;2023-04-06T01:39:31;8.03;;;5.20;;
3099;SDS011;1560;52.746;13.474;2023-04-06T01:41:59;12.37;;;4.95;;
3099;SDS011;1560;52.746;13.474;2023-04-06T01:47:05;8.00;;;4.90;;
3099;SDS011;1560;52.746;13.474;2023-04-06T01:49:33;6.80;;;5.03;;
3099;SDS011;1560;52.746;13.474;2023-04-06T01:52:11;6.47;;;4.97;;
3099;SDS011;1560;52.746;13.474;2023-04-06T01:54:40;7.35;;;5.33;;
3099;SDS011;1560;52.746;13.474;2023-04-06T01:57:09;10.13;;;5.45;;
3099;SDS011;1560;52.746;13.474;2023-04-06T01:59:38;7.42;;;4.90;;
3099;SDS011;1560;52.746;13.474;2023-04-06T02:02:07;6.67;;;5.22;;
3099;SDS011;1560;52.746;13.474;2023-04-06T02:04:36;7.60;;;5.08;;
3099;SDS011;1560;52.746;13.474;2023-04-06T02:07:05;6.72;;;5.10;;
3099;SDS011;1560;52.746;13.474;2023-04-06T02:09:33;8.93;;;5.42;;
3099;SDS011;1560;52.746;13.474;2023-04-06T02:12:04;9.30;;;5.70;;
3099;SDS011;1560;52.746;13.474;2023-04-06T02:14:33;7.72;;;5.58;;
3099;SDS011;1560;52.746;13.474;2023-04-06T02:17:01;8.60;;;6.40;;
3099;SDS011;1560;52.746;13.474;2023-04-06T02:19:30;6.15;;;5.10;;
3099;SDS011;1560;52.746;13.474;2023-04-06T02:21:59;7.37;;;5.65;;
3099;SDS011;1560;52.746;13.474;2023-04-06T02:24:28;11.15;;;5.97;;
3099;SDS011;1560;52.746;13.474;2023-04-06T02:29:33;6.95;;;6.00;;
3099;SDS011;1560;52.746;13.474;2023-04-06T02:32:02;8.20;;;5.40;;
3099;SDS011;1560;52.746;13.474;2023-04-06T02:37:08;8.13;;;6.00;;
3099;SDS011;1560;52.746;13.474;2023-04-06T02:39:36;8.60;;;6.30;;
3099;SDS011;1560;52.746;13.474;2023-04-06T02:42:05;8.98;;;6.62;;
3099;SDS011;1560;52.746;13.474;2023-04-06T02:44:35;8.65;;;6.47;;
3099;SDS011;1560;52.746;13.474;2023-04-06T02:47:04;8.15;;;6.22;;
3099;SDS011;1560;52.746;13.474;2023-04-06T02:49:32;10.00;;;6.37;;
3099;SDS011;1560;52.746;13.474;2023-04-06T02:52:01;8.85;;;6.72;;
3099;SDS011;1560;52.746;13.474;2023-04-06T02:57:07;9.35;;;6.90;;
3099;SDS011;1560;52.746;13.474;2023-04-06T02:59:36;10.63;;;6.85;;
3099;SDS011;1560;52.746;13.474;2023-04-06T03:02:05;10.60;;;6.45;;
3099;SDS011;1560;52.746;13.474;2023-04-06T03:04:33;9.00;;;6.92;;
3099;SDS011;1560;52.746;13.474;2023-04-06T03:07:02;8.20;;;6.87;;
3099;SDS011;1560;52.746;13.474;2023-04-06T03:09:40;11.12;;;7.97;;
3099;SDS011;1560;52.746;13.474;2023-04-06T03:12:09;11.40;;;8.23;;
3099;SDS011;1560;52.746;13.474;2023-04-06T03:14:38;12.30;;;8.00;;
3099;SDS011;1560;52.746;13.474;2023-04-06T03:17:06;14.18;;;9.95;;
3099;SDS011;1560;52.746;13.474;2023-04-06T03:19:36;14.28;;;10.30;;
3099;SDS011;1560;52.746;13.474;2023-04-06T03:22:13;14.90;;;8.88;;
3099;SDS011;1560;52.746;13.474;2023-04-06T03:24:42;12.15;;;8.35;;
3099;SDS011;1560;52.746;13.474;2023-04-06T03:27:11;12.82;;;9.15;;
3099;SDS011;1560;52.746;13.474;2023-04-06T03:29:48;14.00;;;10.10;;
3099;SDS011;1560;52.746;13.474;2023-04-06T03:32:17;14.13;;;8.75;;
3099;SDS011;1560;52.746;13.474;2023-04-06T03:34:46;14.38;;;9.13;;
3099;SDS011;1560;52.746;13.474;2023-04-06T03:37:14;10.78;;;8.55;;
3099;SDS011;1560;52.746;13.474;2023-04-06T03:42:19;10.88;;;9.20;;
3099;SDS011;1560;52.746;13.474;2023-04-06T03:44:48;13.08;;;9.15;;
3099;SDS011;1560;52.746;13.474;2023-04-06T03:47:17;15.65;;;10.40;;
3099;SDS011;1560;52.746;13.474;2023-04-06T03:49:46;14.07;;;9.40;;
3099;SDS011;1560;52.746;13.474;2023-04-06T03:52:15;15.98;;;9.78;;
3099;SDS011;1560;52.746;13.474;2023-04-06T03:54:44;17.62;;;9.83;;
3099;SDS011;1560;52.746;13.474;2023-04-06T03:57:14;14.55;;;10.10;;
3099;SDS011;1560;52.746;13.474;2023-04-06T04:02:22;10.53;;;8.60;;
3099;SDS011;1560;52.746;13.474;2023-04-06T04:05:00;15.98;;;9.88;;
3099;SDS011;1560;52.746;13.474;2023-04-06T04:07:29;19.07;;;10.08;;
3099;SDS011;1560;52.746;13.474;2023-04-06T04:12:35;10.88;;;9.45;;
3099;SDS011;1560;52.746;13.474;2023-04-06T04:15:06;15.48;;;9.20;;
3099;SDS011;1560;52.746;13.474;2023-04-06T04:17:36;12.80;;;9.35;;
3099;SDS011;1560;52.746;13.474;2023-04-06T04:20:06;15.43;;;10.05;;
3099;SDS011;1560;52.746;13.474;2023-04-06T04:22:35;17.40;;;9.75;;
3099;SDS011;1560;52.746;13.474;2023-04-06T04:25:05;10.60;;;8.20;;
3099;SDS011;1560;52.746;13.474;2023-04-06T04:27:34;12.07;;;8.73;;
3099;SDS011;1560;52.746;13.474;2023-04-06T04:30:04;10.72;;;8.43;;
3099;SDS011;1560;52.746;13.474;2023-04-06T04:32:34;14.90;;;9.45;;
3099;SDS011;1560;52.746;13.474;2023-04-06T04:35:03;18.30;;;9.40;;
3099;SDS011;1560;52.746;13.474;2023-04-06T04:37:33;12.23;;;8.60;;
3099;SDS011;1560;52.746;13.474;2023-04-06T04:40:02;11.05;;;8.20;;
3099;SDS011;1560;52.746;13.474;2023-04-06T04:42:32;11.68;;;8.40;;
3099;SDS011;1560;52.746;13.474;2023-04-06T04:45:00;11.55;;;7.80;;
3099;SDS011;1560;52.746;13.474;2023-04-06T04:47:29;12.03;;;8.40;;
3099;SDS011;1560;52.746;13.474;2023-04-06T04:49:58;13.30;;;8.00;;
3099;SDS011;1560;52.746;13.474;2023-04-06T04:52:27;12.05;;;8.08;;
3099;SDS011;1560;52.746;13.474;2023-04-06T04:57:32;12.78;;;8.48;;
3099;SDS011;1560;52.746;13.474;2023-04-06T05:00:02;13.53;;;8.75;;
3099;SDS011;1560;52.746;13.474;2023-04-06T05:05:09;13.58;;;9.45;;
3099;SDS011;1560;52.746;13.474;2023-04-06T05:07:39;15.72;;;8.83;;
3099;SDS011;1560;52.746;13.474;2023-04-06T05:10:09;11.88;;;8.30;;
3099;SDS011;1560;52.746;13.474;2023-04-06T05:15:15;12.65;;;8.75;;
3099;SDS011;1560;52.746;13.474;2023-04-06T05:17:44;12.37;;;7.95;;
3099;SDS011;1560;52.746;13.474;2023-04-06T05:20:13;13.40;;;8.73;;
3099;SDS011;1560;52.746;13.474;2023-04-06T05:22:43;12.23;;;7.87;;
3099;SDS011;1560;52.746;13.474;2023-04-06T05:25:12;14.95;;;9.08;;
3099;SDS011;1560;52.746;13.474;2023-04-06T05:27:41;11.68;;;9.10;;
3099;SDS011;1560;52.746;13.474;2023-04-06T05:30:10;13.00;;;7.75;;
3099;SDS011;1560;52.746;13.474;2023-04-06T05:35:17;12.65;;;7.47;;
3099;SDS011;1560;52.746;13.474;2023-04-06T05:37:46;11.20;;;8.50;;
3099;SDS011;1560;52.746;13.474;2023-04-06T05:40:15;11.73;;;7.80;;
3099;SDS011;1560;52.746;13.474;2023-04-06T05:42:44;13.45;;;9.28;;
3099;SDS011;1560;52.746;13.474;2023-04-06T05:45:13;12.68;;;8.98;;
3099;SDS011;1560;52.746;13.474;2023-04-06T05:47:44;9.98;;;8.05;;
3099;SDS011;1560;52.746;13.474;2023-04-06T05:50:14;9.30;;;7.40;;
3099;SDS011;1560;52.746;13.474;2023-04-06T05:55:19;13.58;;;7.92;;
3099;SDS011;1560;52.746;13.474;2023-04-06T05:57:48;13.85;;;8.60;;
3099;SDS011;1560;52.746;13.474;2023-04-06T06:00:17;13.30;;;9.13;;
3099;SDS011;1560;52.746;13.474;2023-04-06T06:02:47;13.28;;;10.05;;
3099;SDS011;1560;52.746;13.474;2023-04-06T06:05:15;11.03;;;8.23;;
3099;SDS011;1560;52.746;13.474;2023-04-06T06:07:53;14.98;;;8.90;;
3099;SDS011;1560;52.746;13.474;2023-04-06T06:10:22;13.55;;;8.95;;
3099;SDS011;1560;52.746;13.474;2023-04-06T06:12:51;14.78;;;8.95;;
3099;SDS011;1560;52.746;13.474;2023-04-06T06:15:29;12.37;;;8.05;;
3099;SDS011;1560;52.746;13.474;2023-04-06T06:17:58;12.60;;;8.75;;
3099;SDS011;1560;52.746;13.474;2023-04-06T06:20:26;12.03;;;8.68;;
3099;SDS011;1560;52.746;13.474;2023-04-06T06:22:55;13.40;;;9.08;;
3099;SDS011;1560;52.746;13.474;2023-04-06T06:25:24;11.15;;;8.00;;
3099;SDS011;1560;52.746;13.474;2023-04-06T06:27:53;9.55;;;8.15;;
3099;SDS011;1560;52.746;13.474;2023-04-06T06:30:22;13.60;;;9.05;;
3099;SDS011;1560;52.746;13.474;2023-04-06T06:32:51;11.38;;;7.87;;
3099;SDS011;1560;52.746;13.474;2023-04-06T06:35:19;10.13;;;7.72;;
3099;SDS011;1560;52.746;13.474;2023-04-06T06:37:48;10.53;;;8.30;;
3099;SDS011;1560;52.746;13.474;2023-04-06T06:40:17;12.65;;;8.13;;
3099;SDS011;1560;52.746;13.474;2023-04-06T06:42:47;13.03;;;9.23;;
3099;SDS011;1560;52.746;13.474;2023-04-06T06:45:25;10.95;;;8.65;;
3099;SDS011;1560;52.746;13.474;2023-04-06T06:47:55;12.78;;;8.85;;
3099;SDS011;1560;52.746;13.474;2023-04-06T06:50:24;12.05;;;8.45;;
3099;SDS011;1560;52.746;13.474;2023-04-06T06:55:29;12.82;;;9.68;;
3099;SDS011;1560;52.746;13.474;2023-04-06T06:57:58;14.10;;;9.08;;
3099;SDS011;1560;52.746;13.474;2023-04-06T07:00:27;16.73;;;8.78;;
3099;SDS011;1560;52.746;13.474;2023-04-06T07:02:56;16.10;;;8.73;;
3099;SDS011;1560;52.746;13.474;2023-04-06T07:05:24;11.73;;;8.05;;
3099;SDS011;1560;52.746;13.474;2023-04-06T07:07:53;13.32;;;7.95;;
3099;SDS011;1560;52.746;13.474;2023-04-06T07:10:23;11.50;;;8.53;;
3099;SDS011;1560;52.746;13.474;2023-04-06T07:12:52;10.08;;;7.35;;
3099;SDS011;1560;52.746;13.474;2023-04-06T07:15:21;10.00;;;7.50;;
3099;SDS011;1560;52.746;13.474;2023-04-06T07:20:27;17.80;;;10.93;;
3099;SDS011;1560;52.746;13.474;2023-04-06T07:22:55;18.35;;;12.35;;
3099;SDS011;1560;52.746;13.474;2023-04-06T07:28:01;14.30;;;7.95;;
3099;SDS011;1560;52.746;13.474;2023-04-06T07:30:30;8.65;;;5.85;;
3099;SDS011;1560;52.746;13.474;2023-04-06T07:32:59;11.10;;;6.58;;
3099;SDS011;1560;52.746;13.474;2023-04-06T07:35:27;11.33;;;7.05;;
3099;SDS011;1560;52.746;13.474;2023-04-06T07:37:57;9.38;;;7.15;;
3099;SDS011;1560;52.746;13.474;2023-04-06T07:43:02;9.15;;;5.97;;
3099;SDS011;1560;52.746;13.474;2023-04-06T07:45:31;7.00;;;5.15;;
3099;SDS011;1560;52.746;13.474;2023-04-06T07:48:00;7.28;;;6.12;;
3099;SDS011;1560;52.746;13.474;2023-04-06T07:50:29;7.85;;;5.30;;
3099;SDS011;1560;52.746;13.474;2023-04-06T07:52:57;13.22;;;5.67;;
3099;SDS011;1560;52.746;13.474;2023-04-06T07:55:27;6.72;;;5.53;;
3099;SDS011;1560;52.746;13.474;2023-04-06T07:57:56;6.85;;;5.05;;
3099;SDS011;1560;52.746;13.474;2023-04-06T08:00:24;7.67;;;5.92;;
3099;SDS011;1560;52.746;13.474;2023-04-06T08:03:02;7.87;;;5.95;;
3099;SDS011;1560;52.746;13.474;2023-04-06T08:05:31;8.08;;;5.75;;
3099;SDS011;1560;52.746;13.474;2023-04-06T08:08:00;5.87;;;5.03;;
3099;SDS011;1560;52.746;13.474;2023-04-06T08:10:29;6.47;;;4.58;;
3099;SDS011;1560;52.746;13.474;2023-04-06T08:12:58;6.20;;;4.60;;
3099;SDS011;1560;52.746;13.474;2023-04-06T08:18:03;9.03;;;5.22;;
3099;SDS011;1560;52.746;13.474;2023-04-06T08:20:32;7.62;;;4.50;;
3099;SDS011;1560;52.746;13.474;2023-04-06T08:25:38;4.25;;;3.65;;
3099;SDS011;1560;52.746;13.474;2023-04-06T08:28:06;5.45;;;4.22;;
3099;SDS011;1560;52.746;13.474;2023-04-06T08:30:35;4.30;;;3.47;;
3099;SDS011;1560;52.746;13.474;2023-04-06T08:33:06;6.03;;;4.25;;
3099;SDS011;1560;52.746;13.474;2023-04-06T08:35:35;6.12;;;3.62;;
3099;SDS011;1560;52.746;13.474;2023-04-06T08:40:40;5.85;;;3.80;;
3099;SDS011;1560;52.746;13.474;2023-04-06T08:43:12;9.00;;;4.53;;
3099;SDS011;1560;52.746;13.474;2023-04-06T08:48:18;5.20;;;3.72;;
3099;SDS011;1560;52.746;13.474;2023-04-06T08:53:24;4.20;;;3.20;;
3099;SDS011;1560;52.746;13.474;2023-04-06T08:55:53;5.25;;;3.80;;
3099;SDS011;1560;52.746;13.474;2023-04-06T08:58:23;8.28;;;3.45;;
3099;SDS011;1560;52.746;13.474;2023-04-06T09:03:30;5.45;;;3.20;;
3099;SDS011;1560;52.746;13.474;2023-04-06T09:06:02;5.10;;;3.05;;
3099;SDS011;1560;52.746;13.474;2023-04-06T09:08:40;5.53;;;3.10;;
3099;SDS011;1560;52.746;13.474;2023-04-06T09:13:47;6.15;;;2.85;;
3099;SDS011;1560;52.746;13.474;2023-04-06T09:16:16;3.92;;;2.65;;
3099;SDS011;1560;52.746;13.474;2023-04-06T09:18:46;4.45;;;3.05;;
3099;SDS011;1560;52.746;13.474;2023-04-06T09:23:58;4.70;;;3.10;;
3099;SDS011;1560;52.746;13.474;2023-04-06T09:26:28;4.90;;;2.83;;
3099;SDS011;1560;52.746;13.474;2023-04-06T09:29:05;7.45;;;3.50;;
3099;SDS011;1560;52.746;13.474;2023-04-06T09:31:34;5.12;;;3.50;;
3099;SDS011;1560;52.746;13.474;2023-04-06T09:34:20;7.05;;;3.37;;
3099;SDS011;1560;52.746;13.474;2023-04-06T09:36:49;5.87;;;3.90;;
3099;SDS011;1560;52.746;13.474;2023-04-06T09:41:57;6.92;;;4.25;;
3099;SDS011;1560;52.746;13.474;2023-04-06T09:44:27;5.35;;;3.20;;
3099;SDS011;1560;52.746;13.474;2023-04-06T09:46:57;3.98;;;2.95;;
3099;SDS011;1560;52.746;13.474;2023-04-06T09:49:26;4.42;;;3.60;;
3099;SDS011;1560;52.746;13.474;2023-04-06T09:51:59;5.00;;;3.65;;
3099;SDS011;1560;52.746;13.474;2023-04-06T09:54:36;3.62;;;2.50;;
3099;SDS011;1560;52.746;13.474;2023-04-06T09:57:08;4.05;;;2.60;;
3099;SDS011;1560;52.746;13.474;2023-04-06T09:59:47;7.62;;;3.17;;
3099;SDS011;1560;52.746;13.474;2023-04-06T10:04:56;8.10;;;3.20;;
3099;SDS011;1560;52.746;13.474;2023-04-06T10:07:28;5.75;;;3.10;;
3099;SDS011;1560;52.746;13.474;2023-04-06T10:12:34;5.10;;;2.85;;
3099;SDS011;1560;52.746;13.474;2023-04-06T10:15:06;4.00;;;3.20;;
3099;SDS011;1560;52.746;13.474;2023-04-06T10:17:36;6.20;;;3.60;;
3099;SDS011;1560;52.746;13.474;2023-04-06T10:22:44;5.47;;;3.10;;
3099;SDS011;1560;52.746;13.474;2023-04-06T10:25:17;4.30;;;3.10;;
3099;SDS011;1560;52.746;13.474;2023-04-06T10:27:59;4.40;;;2.95;;
3099;SDS011;1560;52.746;13.474;2023-04-06T10:30:28;5.05;;;3.50;;
3099;SDS011;1560;52.746;13.474;2023-04-06T10:32:58;5.20;;;3.33;;
3099;SDS011;1560;52.746;13.474;2023-04-06T10:38:12;7.45;;;5.08;;
3099;SDS011;1560;52.746;13.474;2023-04-06T10:40:41;5.03;;;3.62;;
3099;SDS011;1560;52.746;13.474;2023-04-06T10:45:54;7.15;;;3.92;;
3099;SDS011;1560;52.746;13.474;2023-04-06T10:48:24;3.85;;;3.17;;
3099;SDS011;1560;52.746;13.474;2023-04-06T10:50:54;4.00;;;2.80;;
3099;SDS011;1560;52.746;13.474;2023-04-06T10:53:24;6.90;;;3.25;;
3099;SDS011;1560;52.746;13.474;2023-04-06T10:55:54;4.30;;;3.20;;
3099;SDS011;1560;52.746;13.474;2023-04-06T11:01:01;4.85;;;3.10;;
3099;SDS011;1560;52.746;13.474;2023-04-06T11:03:30;4.05;;;2.85;;
3099;SDS011;1560;52.746;13.474;2023-04-06T11:06:01;5.05;;;3.40;;
3099;SDS011;1560;52.746;13.474;2023-04-06T11:08:30;4.75;;;2.75;;
3099;SDS011;1560;52.746;13.474;2023-04-06T11:11:07;2.87;;;2.58;;
3099;SDS011;1560;52.746;13.474;2023-04-06T11:13:38;3.85;;;2.80;;
3099;SDS011;1560;52.746;13.474;2023-04-06T11:18:52;4.75;;;3.10;;
3099;SDS011;1560;52.746;13.474;2023-04-06T11:21:32;6.30;;;3.27;;
3099;SDS011;1560;52.746;13.474;2023-04-06T11:26:43;3.58;;;2.50;;
3099;SDS011;1560;52.746;13.474;2023-04-06T11:31:52;3.62;;;2.90;;
3099;SDS011;1560;52.746;13.474;2023-04-06T11:34:23;4.80;;;2.47;;
3099;SDS011;1560;52.746;13.474;2023-04-06T11:36:54;6.80;;;2.98;;
3099;SDS011;1560;52.746;13.474;2023-04-06T11:42:00;3.62;;;2.90;;
3099;SDS011;1560;52.746;13.474;2023-04-06T11:44:32;5.42;;;2.90;;
3099;SDS011;1560;52.746;13.474;2023-04-06T11:47:03;5.40;;;3.60;;
3099;SDS011;1560;52.746;13.474;2023-04-06T11:49:41;3.37;;;2.55;;
3099;SDS011;1560;52.746;13.474;2023-04-06T11:52:15;3.80;;;2.80;;
3099;SDS011;1560;52.746;13.474;2023-04-06T11:54:45;4.62;;;2.87;;
3099;SDS011;1560;52.746;13.474;2023-04-06T11:59:52;4.22;;;2.90;;
3099;SDS011;1560;52.746;13.474;2023-04-06T12:02:22;5.50;;;2.65;;
3099;SDS011;1560;52.746;13.474;2023-04-06T12:04:51;2.85;;;2.58;;
3099;SDS011;1560;52.746;13.474;2023-04-06T12:09:56;3.47;;;2.85;;
3099;SDS011;1560;52.746;13.474;2023-04-06T12:12:25;3.50;;;3.10;;
3099;SDS011;1560;52.746;13.474;2023-04-06T12:14:54;4.37;;;3.27;;
3099;SDS011;1560;52.746;13.474;2023-04-06T12:20:00;3.80;;;2.70;;
3099;SDS011;1560;52.746;13.474;2023-04-06T12:22:29;2.98;;;2.60;;
3099;SDS011;1560;52.746;13.474;2023-04-06T12:24:58;4.30;;;2.83;;
3099;SDS011;1560;52.746;13.474;2023-04-06T12:27:28;4.25;;;3.50;;
3099;SDS011;1560;52.746;13.474;2023-04-06T12:29:57;4.00;;;2.80;;
3099;SDS011;1560;52.746;13.474;2023-04-06T12:35:03;3.62;;;3.00;;
3099;SDS011;1560;52.746;13.474;2023-04-06T12:37:32;4.45;;;2.75;;
3099;SDS011;1560;52.746;13.474;2023-04-06T12:42:38;4.23;;;2.77;;
3099;SDS011;1560;52.746;13.474;2023-04-06T12:45:08;3.77;;;2.70;;
3099;SDS011;1560;52.746;13.474;2023-04-06T12:47:38;9.10;;;3.95;;
3099;SDS011;1560;52.746;13.474;2023-04-06T12:52:43;3.03;;;2.50;;
3099;SDS011;1560;52.746;13.474;2023-04-06T12:55:12;4.92;;;3.47;;
3099;SDS011;1560;52.746;13.474;2023-04-06T12:57:41;5.10;;;2.65;;
3099;SDS011;1560;52.746;13.474;2023-04-06T13:02:49;5.33;;;3.02;;
3099;SDS011;1560;52.746;13.474;2023-04-06T13:05:18;5.12;;;3.05;;
3099;SDS011;1560;52.746;13.474;2023-04-06T13:07:47;4.65;;;2.90;;
3099;SDS011;1560;52.746;13.474;2023-04-06T13:10:16;5.97;;;3.70;;
3099;SDS011;1560;52.746;13.474;2023-04-06T13:12:47;6.53;;;2.92;;
3099;SDS011;1560;52.746;13.474;2023-04-06T13:15:24;7.03;;;3.47;;
3099;SDS011;1560;52.746;13.474;2023-04-06T13:17:58;3.55;;;3.15;;
3099;SDS011;1560;52.746;13.474;2023-04-06T13:23:04;4.35;;;3.35;;
3099;SDS011;1560;52.746;13.474;2023-04-06T13:25:33;4.53;;;3.08;;
3099;SDS011;1560;52.746;13.474;2023-04-06T13:28:05;5.50;;;3.33;;
3099;SDS011;1560;52.746;13.474;2023-04-06T13:33:10;3.35;;;3.00;;
3099;SDS011;1560;52.746;13.474;2023-04-06T13:35:39;3.80;;;3.00;;
3099;SDS011;1560;52.746;13.474;2023-04-06T13:38:10;5.10;;;2.92;;
3099;SDS011;1560;52.746;13.474;2023-04-06T13:40:39;3.37;;;2.62;;
3099;SDS011;1560;52.746;13.474;2023-04-06T13:45:48;4.83;;;3.00;;
3099;SDS011;1560;52.746;13.474;2023-04-06T13:48:18;3.42;;;2.70;;
3099;SDS011;1560;52.746;13.474;2023-04-06T13:50:47;4.35;;;3.45;;
3099;SDS011;1560;52.746;13.474;2023-04-06T13:53:16;4.55;;;2.72;;
3099;SDS011;1560;52.746;13.474;2023-04-06T13:55:51;5.03;;;3.58;;
3099;SDS011;1560;52.746;13.474;2023-04-06T13:58:22;4.75;;;2.85;;
3099;SDS011;1560;52.746;13.474;2023-04-06T14:00:52;5.83;;;3.47;;
3099;SDS011;1560;52.746;13.474;2023-04-06T14:05:57;4.42;;;3.47;;
3099;SDS011;1560;52.746;13.474;2023-04-06T14:08:26;4.35;;;2.95;;
3099;SDS011;1560;52.746;13.474;2023-04-06T14:11:04;4.30;;;3.35;;
3099;SDS011;1560;52.746;13.474;2023-04-06T14:13:35;3.30;;;2.60;;
3099;SDS011;1560;52.746;13.474;2023-04-06T14:16:05;3.52;;;2.72;;
3099;SDS011;1560;52.746;13.474;2023-04-06T14:18:36;3.70;;;2.55;;
3099;SDS011;1560;52.746;13.474;2023-04-06T14:21:05;4.35;;;2.83;;
3099;SDS011;1560;52.746;13.474;2023-04-06T14:23:33;3.98;;;2.80;;
3099;SDS011;1560;52.746;13.474;2023-04-06T14:26:03;4.20;;;2.72;;
3099;SDS011;1560;52.746;13.474;2023-04-06T14:41:42;3.25;;;2.50;;
3099;SDS011;1560;52.746;13.474;2023-04-06T14:44:15;8.93;;;3.05;;
3099;SDS011;1560;52.746;13.474;2023-04-06T14:46:46;3.30;;;3.00;;
3099;SDS011;1560;52.746;13.474;2023-04-06T14:49:21;3.60;;;2.58;;
3099;SDS011;1560;52.746;13.474;2023-04-06T14:51:50;3.75;;;2.80;;
3099;SDS011;1560;52.746;13.474;2023-04-06T14:54:27;7.22;;;3.00;;
3099;SDS011;1560;52.746;13.474;2023-04-06T14:56:56;9.45;;;3.12;;
3099;SDS011;1560;52.746;13.474;2023-04-06T14:59:27;3.92;;;2.67;;
3099;SDS011;1560;52.746;13.474;2023-04-06T15:02:09;2.95;;;2.52;;
3099;SDS011;1560;52.746;13.474;2023-04-06T15:04:39;3.62;;;2.72;;
3099;SDS011;1560;52.746;13.474;2023-04-06T15:07:10;4.47;;;2.65;;
3099;SDS011;1560;52.746;13.474;2023-04-06T15:09:43;4.85;;;4.10;;
3099;SDS011;1560;52.746;13.474;2023-04-06T15:44:00;4.03;;;2.33;;
3099;SDS011;1560;52.746;13.474;2023-04-06T16:10:35;5.75;;;3.62;;
3099;SDS011;1560;52.746;13.474;2023-04-06T16:13:13;4.35;;;2.22;;
3099;SDS011;1560;52.746;13.474;2023-04-06T16:15:56;4.17;;;2.85;;
3099;SDS011;1560;52.746;13.474;2023-04-06T17:24:43;11.97;;;6.92;;
3099;SDS011;1560;52.746;13.474;2023-04-06T17:30:38;3.70;;;2.80;;
3099;SDS011;1560;52.746;13.474;2023-04-06T17:33:17;4.60;;;2.37;;
3099;SDS011;1560;52.746;13.474;2023-04-06T17:35:56;5.12;;;3.10;;
3099;SDS011;1560;52.746;13.474;2023-04-06T17:50:54;4.15;;;2.42;;
3099;SDS011;1560;52.746;13.474;2023-04-06T18:00:10;4.78;;;2.10;;
3099;SDS011;1560;52.746;13.474;2023-04-06T18:02:44;2.72;;;1.75;;
3099;SDS011;1560;52.746;13.474;2023-04-06T18:05:24;2.98;;;2.22;;
3099;SDS011;1560;52.746;13.474;2023-04-06T18:08:04;6.00;;;1.95;;
3099;SDS011;1560;52.746;13.474;2023-04-06T18:10:46;3.30;;;2.15;;
3099;SDS011;1560;52.746;13.474;2023-04-06T18:16:49;8.48;;;2.70;;
3099;SDS011;1560;52.746;13.474;2023-04-06T18:33:42;7.70;;;2.42;;
3099;SDS011;1560;52.746;13.474;2023-04-06T18:36:13;5.33;;;2.70;;
3099;SDS011;1560;52.746;13.474;2023-04-06T18:50:14;4.22;;;2.50;;
3099;SDS011;1560;52.746;13.474;2023-04-06T18:52:43;4.53;;;2.85;;
3099;SDS011;1560;52.746;13.474;2023-04-06T18:55:14;3.92;;;2.70;;
3099;SDS011;1560;52.746;13.474;2023-04-06T19:00:55;3.08;;;2.08;;
3099;SDS011;1560;52.746;13.474;2023-04-06T19:06:52;2.90;;;2.20;;
3099;SDS011;1560;52.746;13.474;2023-04-06T19:33:36;6.10;;;3.45;;
3099;SDS011;1560;52.746;13.474;2023-04-06T19:36:10;10.28;;;3.58;;
3099;SDS011;1560;52.746;13.474;2023-04-06T20:13:38;6.53;;;3.50;;
3099;SDS011;1560;52.746;13.474;2023-04-06T20:16:07;5.10;;;3.85;;
3099;SDS011;1560;52.746;13.474;2023-04-06T20:21:12;6.67;;;3.35;;
3099;SDS011;1560;52.746;13.474;2023-04-06T20:23:50;5.10;;;2.92;;
3099;SDS011;1560;52.746;13.474;2023-04-06T20:26:19;6.75;;;3.37;;
3099;SDS011;1560;52.746;13.474;2023-04-06T20:28:48;5.20;;;3.15;;
3099;SDS011;1560;52.746;13.474;2023-04-06T20:31:17;5.03;;;3.50;;
3099;SDS011;1560;52.746;13.474;2023-04-06T20:33:46;4.47;;;3.33;;
3099;SDS011;1560;52.746;13.474;2023-04-06T20:46:48;4.25;;;3.08;;
3099;SDS011;1560;52.746;13.474;2023-04-06T20:49:26;6.47;;;3.83;;
3099;SDS011;1560;52.746;13.474;2023-04-06T20:54:38;6.60;;;4.45;;
3099;SDS011;1560;52.746;13.474;2023-04-06T20:57:06;5.20;;;3.58;;
3099;SDS011;1560;52.746;13.474;2023-04-06T20:59:35;7.22;;;3.42;;
3099;SDS011;1560;52.746;13.474;2023-04-06T21:02:04;6.28;;;3.77;;
3099;SDS011;1560;52.746;13.474;2023-04-06T21:07:09;4.87;;;3.77;;
3099;SDS011;1560;52.746;13.474;2023-04-06T21:12:15;6.87;;;4.20;;
3099;SDS011;1560;52.746;13.474;2023-04-06T21:14:44;7.10;;;3.52;;
3099;SDS011;1560;52.746;13.474;2023-04-06T21:17:13;5.92;;;4.10;;
3099;SDS011;1560;52.746;13.474;2023-04-06T21:19:42;5.95;;;3.80;;
3099;SDS011;1560;52.746;13.474;2023-04-06T21:24:47;4.70;;;2.85;;
3099;SDS011;1560;52.746;13.474;2023-04-06T21:27:18;5.20;;;2.95;;
3099;SDS011;1560;52.746;13.474;2023-04-06T21:32:25;6.00;;;3.58;;
3099;SDS011;1560;52.746;13.474;2023-04-06T21:34:55;6.58;;;3.50;;
3099;SDS011;1560;52.746;13.474;2023-04-06T21:37:25;4.08;;;3.67;;
3099;SDS011;1560;52.746;13.474;2023-04-06T21:39:55;5.22;;;3.55;;
3099;SDS011;1560;52.746;13.474;2023-04-06T21:42:33;5.22;;;3.60;;
3099;SDS011;1560;52.746;13.474;2023-04-06T21:45:03;5.55;;;3.85;;
3099;SDS011;1560;52.746;13.474;2023-04-06T21:47:42;6.60;;;4.10;;
3099;SDS011;1560;52.746;13.474;2023-04-06T21:50:13;4.35;;;2.92;;
3099;SDS011;1560;52.746;13.474;2023-04-06T21:52:43;5.75;;;3.62;;
3099;SDS011;1560;52.746;13.474;2023-04-06T21:55:13;9.15;;;3.22;;
3099;SDS011;1560;52.746;13.474;2023-04-06T22:00:19;3.80;;;3.30;;
3099;SDS011;1560;52.746;13.474;2023-04-06T22:02:50;8.83;;;3.65;;
3099;SDS011;1560;52.746;13.474;2023-04-06T22:11:22;5.17;;;3.75;;
3099;SDS011;1560;52.746;13.474;2023-04-06T22:13:51;5.45;;;3.75;;
3099;SDS011;1560;52.746;13.474;2023-04-06T22:16:22;7.05;;;4.12;;
3099;SDS011;1560;52.746;13.474;2023-04-06T22:32:09;4.72;;;3.60;;
3099;SDS011;1560;52.746;13.474;2023-04-06T22:34:40;5.55;;;4.08;;